Time;durP1;ratioP1;P1;durP2;ratioP2;P2;SDS_P1;SDS_P2;PMS_P1;PMS_P2;Temp;Humidity;BMP_temperature;BMP_pressure;BME280_temperature;BME280_humidity;BME280_pressure;Samples;Min_cycle;Max_cycle;Signal;HPM_P1;HPM_P2
2022/05/04 00:01:56;;;;;;;11.07;6.60;;;;;;;;;;5021288;28;20137;-78
2022/05/04 00:04:22;;;;;;;12.60;7.25;;;;;;;;;;5025148;28;20058;-78
2022/05/04 00:06:49;;;;;;;13.40;8.05;;;;;;;;;;5024752;28;20061;-78
2022/05/04 00:09:16;;;;;;;12.02;7.70;;;;;;;;;;5018514;28;20480;-77
2022/05/04 00:11:45;;;;;;;19.95;9.07;;;;;;;;;;5015118;28;20495;-79
2022/05/04 00:14:12;;;;;;;13.90;9.10;;;;;;;;;;5016902;28;20075;-78
2022/05/04 00:16:39;;;;;;;12.20;8.75;;;;;;;;;;5015813;28;20045;-76
2022/05/04 00:19:05;;;;;;;12.77;8.77;;;;;;;;;;5014316;28;20112;-77
2022/05/04 00:21:32;;;;;;;12.77;8.57;;;;;;;;;;5013839;28;20054;-76
2022/05/04 00:23:59;;;;;;;14.52;8.80;;;;;;;;;;5013483;28;20053;-77
2022/05/04 00:26:26;;;;;;;14.55;10.07;;;;;;;;;;5013064;28;20046;-77
2022/05/04 00:28:54;;;;;;;15.98;10.07;;;;;;;;;;5013281;28;20504;-77
2022/05/04 00:31:21;;;;;;;15.50;9.90;;;;;;;;;;5013658;28;20054;-77
2022/05/04 00:33:48;;;;;;;15.70;9.90;;;;;;;;;;5013070;28;20046;-78
2022/05/04 00:36:17;;;;;;;18.25;11.10;;;;;;;;;;5013787;28;20042;-78
2022/05/04 00:38:43;;;;;;;18.15;11.82;;;;;;;;;;5013136;28;20049;-77
2022/05/04 00:41:10;;;;;;;17.83;10.75;;;;;;;;;;5013046;28;20053;-76
2022/05/04 00:43:37;;;;;;;14.93;9.80;;;;;;;;;;5013436;28;20096;-77
2022/05/04 00:46:05;;;;;;;14.10;8.90;;;;;;;;;;5007813;28;20046;-77
2022/05/04 00:48:32;;;;;;;16.17;10.25;;;;;;;;;;4995047;28;20057;-78
2022/05/04 00:50:59;;;;;;;17.10;10.45;;;;;;;;;;4995249;28;20102;-78
2022/05/04 00:53:26;;;;;;;18.42;11.45;;;;;;;;;;4993682;28;20516;-77
2022/05/04 00:55:54;;;;;;;17.92;11.38;;;;;;;;;;4993471;28;20062;-76
2022/05/04 01:01:13;;;;;;;17.50;11.75;;;;;;;;;;4993709;28;20057;-77
2022/05/04 01:03:40;;;;;;;17.55;11.82;;;;;;;;;;4993778;28;20516;-76
2022/05/04 01:06:07;;;;;;;18.00;11.73;;;;;;;;;;4993270;28;20054;-77
2022/05/04 01:08:34;;;;;;;17.67;12.00;;;;;;;;;;4993213;28;20058;-78
2022/05/04 01:11:01;;;;;;;18.50;11.38;;;;;;;;;;4993464;28;20148;-77
2022/05/04 01:13:28;;;;;;;16.80;10.82;;;;;;;;;;4992500;28;20501;-78
2022/05/04 01:15:54;;;;;;;18.42;10.43;;;;;;;;;;4993419;28;20129;-78
2022/05/04 01:18:23;;;;;;;14.75;10.43;;;;;;;;;;4992986;28;20054;-77
2022/05/04 01:20:50;;;;;;;13.40;9.52;;;;;;;;;;4993313;28;20109;-78
2022/05/04 01:23:19;;;;;;;14.60;10.32;;;;;;;;;;4992745;28;20049;-76
2022/05/04 01:25:46;;;;;;;14.75;10.25;;;;;;;;;;4992795;28;20042;-77
2022/05/04 01:28:12;;;;;;;14.18;9.43;;;;;;;;;;4993142;28;20056;-77
2022/05/04 01:30:39;;;;;;;13.70;9.52;;;;;;;;;;4993230;28;20046;-76
2022/05/04 01:33:06;;;;;;;17.10;11.10;;;;;;;;;;4992675;28;20186;-77
2022/05/04 01:35:33;;;;;;;15.88;10.57;;;;;;;;;;4992960;28;20113;-77
2022/05/04 01:38:00;;;;;;;17.65;10.80;;;;;;;;;;4993897;28;20050;-78
2022/05/04 01:40:28;;;;;;;16.05;11.45;;;;;;;;;;4994069;28;20062;-78
2022/05/04 01:42:55;;;;;;;19.17;10.80;;;;;;;;;;4994130;28;20050;-75
2022/05/04 01:45:22;;;;;;;15.02;10.57;;;;;;;;;;4993273;28;20054;-76
2022/05/04 01:47:50;;;;;;;11.60;8.60;;;;;;;;;;5012819;28;20054;-77
2022/05/04 01:50:17;;;;;;;10.38;7.53;;;;;;;;;;5012138;28;20595;-76
2022/05/04 01:52:44;;;;;;;9.70;6.65;;;;;;;;;;5012404;28;20050;-77
2022/05/04 01:55:10;;;;;;;9.43;6.60;;;;;;;;;;5012251;28;20046;-76
2022/05/04 01:57:39;;;;;;;9.88;5.95;;;;;;;;;;5012109;28;20046;-77
2022/05/04 02:00:07;;;;;;;9.38;5.85;;;;;;;;;;5012040;28;20137;-77
2022/05/04 02:02:34;;;;;;;8.52;5.80;;;;;;;;;;5012244;28;20504;-76
2022/05/04 02:05:02;;;;;;;8.75;5.90;;;;;;;;;;5012169;28;20061;-77
2022/05/04 02:07:29;;;;;;;11.60;6.13;;;;;;;;;;5012348;28;20049;-76
2022/05/04 02:09:56;;;;;;;8.88;6.13;;;;;;;;;;5012187;28;20081;-78
2022/05/04 02:12:23;;;;;;;8.05;5.53;;;;;;;;;;5012461;28;20096;-77
2022/05/04 02:14:51;;;;;;;8.90;6.25;;;;;;;;;;5012186;28;20057;-77
2022/05/04 02:17:18;;;;;;;7.47;5.88;;;;;;;;;;5015917;28;20104;-77
2022/05/04 02:19:45;;;;;;;7.90;6.18;;;;;;;;;;5037280;28;20030;-77
2022/05/04 02:22:11;;;;;;;9.98;6.25;;;;;;;;;;5036359;28;20084;-77
2022/05/04 02:24:38;;;;;;;8.80;5.97;;;;;;;;;;5012985;28;20046;-76
2022/05/04 02:27:05;;;;;;;8.48;6.28;;;;;;;;;;5017497;28;20050;-79
2022/05/04 02:29:32;;;;;;;8.85;5.93;;;;;;;;;;5037520;28;20132;-77
2022/05/04 02:32:00;;;;;;;9.13;5.68;;;;;;;;;;5038044;28;20049;-77
2022/05/04 02:34:27;;;;;;;8.80;5.75;;;;;;;;;;5036916;28;20037;-78
2022/05/04 02:39:38;;;;;;;10.02;5.38;;;;;;;;;;5038931;28;20064;-77
2022/05/04 02:42:06;;;;;;;6.80;5.25;;;;;;;;;;5036221;28;20080;-77
2022/05/04 02:44:32;;;;;;;6.97;4.72;;;;;;;;;;5018785;28;20046;-78
2022/05/04 02:47:01;;;;;;;8.00;4.82;;;;;;;;;;5002673;28;20050;-78
2022/05/04 02:49:28;;;;;;;7.35;4.90;;;;;;;;;;4996320;28;20116;-77
2022/05/04 02:51:54;;;;;;;8.25;5.90;;;;;;;;;;4996214;28;20112;-77
2022/05/04 02:54:21;;;;;;;7.70;5.53;;;;;;;;;;4995699;28;20054;-78
2022/05/04 02:56:48;;;;;;;9.00;5.63;;;;;;;;;;4995250;28;20050;-78
2022/05/04 02:59:15;;;;;;;7.90;5.07;;;;;;;;;;4995431;28;20069;-77
2022/05/04 03:04:33;;;;;;;7.15;4.20;;;;;;;;;;4995479;28;20093;-76
2022/05/04 03:07:00;;;;;;;7.15;4.60;;;;;;;;;;4995459;28;20057;-77
2022/05/04 03:09:27;;;;;;;6.38;4.40;;;;;;;;;;4995397;28;20057;-77
2022/05/04 03:11:56;;;;;;;8.80;5.20;;;;;;;;;;4995393;28;20604;-77
2022/05/04 03:14:23;;;;;;;9.80;6.55;;;;;;;;;;4995328;28;20084;-77
2022/05/04 03:16:51;;;;;;;8.82;6.28;;;;;;;;;;4995386;28;20497;-77
2022/05/04 03:19:18;;;;;;;11.63;7.32;;;;;;;;;;4998435;28;20042;-77
2022/05/04 03:21:46;;;;;;;9.88;6.28;;;;;;;;;;4997553;28;20054;-77
2022/05/04 03:24:13;;;;;;;7.82;4.80;;;;;;;;;;4995160;28;20050;-77
2022/05/04 03:26:40;;;;;;;7.20;4.35;;;;;;;;;;4995059;28;20104;-77
2022/05/04 03:29:07;;;;;;;6.82;4.25;;;;;;;;;;4995476;28;20042;-77
2022/05/04 03:31:34;;;;;;;8.48;4.68;;;;;;;;;;4994905;28;20077;-77
2022/05/04 03:34:01;;;;;;;6.70;4.20;;;;;;;;;;4996619;28;20136;-76
2022/05/04 03:36:28;;;;;;;7.10;4.90;;;;;;;;;;5006543;28;20046;-76
2022/05/04 03:38:57;;;;;;;9.30;4.90;;;;;;;;;;5006265;28;20100;-76
2022/05/04 03:41:23;;;;;;;6.35;4.13;;;;;;;;;;4996433;28;20057;-76
2022/05/04 03:43:50;;;;;;;6.32;4.28;;;;;;;;;;4994958;28;20451;-76
2022/05/04 03:46:19;;;;;;;5.50;4.00;;;;;;;;;;5002383;28;20482;-76
2022/05/04 03:48:48;;;;;;;6.55;4.50;;;;;;;;;;5014360;28;20614;-76
2022/05/04 03:51:16;;;;;;;7.10;4.38;;;;;;;;;;5014052;28;20042;-76
2022/05/04 03:53:43;;;;;;;6.68;4.70;;;;;;;;;;5014657;28;20042;-77
2022/05/04 03:56:11;;;;;;;6.28;4.72;;;;;;;;;;5013630;28;20542;-77
2022/05/04 03:58:38;;;;;;;9.07;4.75;;;;;;;;;;5014284;28;20050;-77
2022/05/04 04:01:06;;;;;;;6.78;4.30;;;;;;;;;;5013806;28;20057;-77
2022/05/04 04:03:33;;;;;;;6.03;4.50;;;;;;;;;;5013997;28;20077;-77
2022/05/04 04:06:01;;;;;;;5.88;3.85;;;;;;;;;;5013656;28;20049;-77
2022/05/04 04:08:28;;;;;;;6.63;3.85;;;;;;;;;;5014192;28;20050;-76
2022/05/04 04:10:55;;;;;;;7.38;4.40;;;;;;;;;;5013788;28;20058;-77
2022/05/04 04:13:24;;;;;;;5.95;4.18;;;;;;;;;;5034263;22;20037;-67
2022/05/04 04:15:51;;;;;;;5.75;3.60;;;;;;;;;;5053496;28;20053;-66
2022/05/04 04:18:21;;;;;;;6.95;3.90;;;;;;;;;;5053859;28;20500;-68
2022/05/04 04:23:33;;;;;;;5.45;3.67;;;;;;;;;;5053505;28;20116;-67
2022/05/04 04:26:00;;;;;;;7.47;3.78;;;;;;;;;;5053177;28;20084;-68
2022/05/04 04:28:28;;;;;;;8.02;4.60;;;;;;;;;;5053200;28;20051;-67
2022/05/04 04:30:55;;;;;;;10.20;5.75;;;;;;;;;;5053243;28;20049;-67
2022/05/04 04:33:26;;;;;;;11.48;8.02;;;;;;;;;;5053546;28;20409;-67
2022/05/04 04:35:53;;;;;;;12.23;7.75;;;;;;;;;;5052963;28;20053;-67
2022/05/04 04:38:20;;;;;;;14.32;7.90;;;;;;;;;;5053231;28;20052;-67
2022/05/04 04:40:47;;;;;;;13.68;7.53;;;;;;;;;;5053052;28;20477;-67
2022/05/04 04:43:15;;;;;;;12.27;7.10;;;;;;;;;;5053557;28;20048;-67
2022/05/04 04:45:44;;;;;;;10.00;6.57;;;;;;;;;;5053297;28;20053;-66
2022/05/04 04:48:11;;;;;;;12.05;6.72;;;;;;;;;;5052833;28;20049;-68
2022/05/04 04:50:38;;;;;;;11.20;7.38;;;;;;;;;;5053076;28;20052;-68
2022/05/04 04:53:06;;;;;;;10.07;6.90;;;;;;;;;;5052969;28;20179;-68
2022/05/04 04:55:33;;;;;;;9.65;6.68;;;;;;;;;;5053307;28;20052;-68
2022/05/04 04:58:00;;;;;;;11.55;6.90;;;;;;;;;;5053497;28;20415;-67
2022/05/04 05:00:27;;;;;;;11.68;6.13;;;;;;;;;;5057977;22;20124;-60
2022/05/04 05:02:56;;;;;;;8.30;4.95;;;;;;;;;;5031852;28;20673;-62
2022/05/04 05:05:23;;;;;;;9.02;5.28;;;;;;;;;;5033559;28;20061;-60
2022/05/04 05:07:50;;;;;;;8.77;5.15;;;;;;;;;;5034137;28;20060;-61
2022/05/04 05:10:17;;;;;;;8.13;4.90;;;;;;;;;;5033877;28;20054;-61
2022/05/04 05:12:44;;;;;;;6.65;4.45;;;;;;;;;;5034147;28;20072;-61
2022/05/04 05:17:56;;;;;;;7.60;4.55;;;;;;;;;;5033488;28;20457;-60
2022/05/04 05:20:23;;;;;;;9.70;4.32;;;;;;;;;;5033873;28;20133;-61
2022/05/04 05:22:50;;;;;;;6.93;4.35;;;;;;;;;;5033923;28;20053;-61
2022/05/04 05:25:17;;;;;;;6.90;4.10;;;;;;;;;;5034076;28;20045;-61
2022/05/04 05:27:44;;;;;;;8.30;4.97;;;;;;;;;;5033451;28;20050;-61
2022/05/04 05:30:14;;;;;;;7.03;4.80;;;;;;;;;;5034243;28;20341;-61
2022/05/04 05:32:41;;;;;;;8.50;4.78;;;;;;;;;;5033218;28;20060;-61
2022/05/04 05:35:10;;;;;;;7.47;4.53;;;;;;;;;;5033526;28;20050;-61
2022/05/04 05:37:37;;;;;;;7.53;4.97;;;;;;;;;;5033517;28;20483;-61
2022/05/04 05:40:05;;;;;;;7.38;5.30;;;;;;;;;;5034074;28;20053;-60
2022/05/04 05:42:34;;;;;;;8.10;5.05;;;;;;;;;;5033473;28;20111;-60
2022/05/04 05:45:01;;;;;;;8.07;5.00;;;;;;;;;;5033193;28;20054;-61
2022/05/04 05:47:28;;;;;;;8.70;4.95;;;;;;;;;;5033105;28;20045;-61
2022/05/04 05:49:55;;;;;;;8.43;5.43;;;;;;;;;;5034105;28;20139;-60
2022/05/04 05:52:23;;;;;;;8.13;4.93;;;;;;;;;;5033836;28;20051;-61
2022/05/04 05:54:51;;;;;;;10.48;4.95;;;;;;;;;;5033824;28;20532;-61
2022/05/04 05:57:21;;;;;;;8.50;5.07;;;;;;;;;;5034134;28;20045;-61
2022/05/04 05:59:48;;;;;;;6.95;5.10;;;;;;;;;;5033876;28;20132;-61
2022/05/04 06:02:15;;;;;;;7.57;5.05;;;;;;;;;;5037675;28;20053;-60
2022/05/04 06:04:42;;;;;;;8.77;5.43;;;;;;;;;;5036687;28;20061;-60
2022/05/04 06:07:08;;;;;;;7.10;4.70;;;;;;;;;;5036913;28;20050;-60
2022/05/04 06:09:37;;;;;;;9.27;5.68;;;;;;;;;;5038024;28;20054;-60
2022/05/04 06:12:04;;;;;;;8.50;6.22;;;;;;;;;;5038383;28;20068;-60
2022/05/04 06:14:31;;;;;;;8.43;6.05;;;;;;;;;;5037656;28;20054;-61
2022/05/04 06:16:58;;;;;;;9.57;6.80;;;;;;;;;;5037294;28;20053;-61
2022/05/04 06:19:25;;;;;;;8.52;6.15;;;;;;;;;;5037547;28;20059;-61
2022/05/04 06:21:52;;;;;;;10.13;6.47;;;;;;;;;;5037761;28;20060;-61
2022/05/04 06:24:19;;;;;;;10.50;7.18;;;;;;;;;;5036848;28;20057;-61
2022/05/04 06:26:47;;;;;;;11.48;7.20;;;;;;;;;;5036906;28;20094;-61
2022/05/04 06:29:14;;;;;;;10.55;7.82;;;;;;;;;;5037272;28;20049;-61
2022/05/04 06:34:25;;;;;;;11.77;7.47;;;;;;;;;;5037186;28;20468;-61
2022/05/04 06:36:52;;;;;;;9.23;6.22;;;;;;;;;;5036705;28;20045;-62
2022/05/04 06:39:19;;;;;;;11.13;7.07;;;;;;;;;;5036966;28;20136;-60
2022/05/04 06:41:49;;;;;;;10.55;7.13;;;;;;;;;;5037211;28;20049;-61
2022/05/04 06:44:16;;;;;;;10.93;6.80;;;;;;;;;;5036788;28;20145;-60
2022/05/04 06:46:43;;;;;;;11.48;6.82;;;;;;;;;;5025160;28;20368;-60
2022/05/04 06:49:11;;;;;;;9.70;6.63;;;;;;;;;;5017306;28;20087;-60
2022/05/04 06:51:38;;;;;;;9.77;6.32;;;;;;;;;;5016823;28;20104;-61
2022/05/04 06:54:05;;;;;;;8.43;5.93;;;;;;;;;;5016723;28;20084;-61
2022/05/04 06:56:32;;;;;;;7.82;5.05;;;;;;;;;;5016599;28;20054;-61
2022/05/04 06:59:00;;;;;;;8.30;5.55;;;;;;;;;;5016827;28;20045;-61
2022/05/04 07:01:28;;;;;;;7.78;4.93;;;;;;;;;;5016575;28;20117;-60
2022/05/04 07:03:55;;;;;;;7.25;4.60;;;;;;;;;;5016649;28;20094;-61
2022/05/04 07:06:22;;;;;;;6.97;4.70;;;;;;;;;;5016230;28;20107;-61
2022/05/04 07:08:49;;;;;;;9.25;4.28;;;;;;;;;;5034466;28;20414;-61
2022/05/04 07:11:16;;;;;;;6.07;4.03;;;;;;;;;;5034273;28;20054;-60
2022/05/04 07:13:43;;;;;;;6.35;3.92;;;;;;;;;;5034137;28;20076;-61
2022/05/04 07:16:12;;;;;;;7.22;3.83;;;;;;;;;;5034535;28;20261;-61
2022/05/04 07:18:39;;;;;;;5.68;3.67;;;;;;;;;;5034384;28;20080;-61
2022/05/04 07:21:06;;;;;;;7.82;5.50;;;;;;;;;;5034475;28;20080;-61
2022/05/04 07:23:33;;;;;;;10.75;7.45;;;;;;;;;;5034680;28;20525;-62
2022/05/04 07:26:00;;;;;;;6.25;3.90;;;;;;;;;;5033866;28;20037;-63
2022/05/04 07:28:27;;;;;;;7.00;3.60;;;;;;;;;;5034559;28;20049;-64
2022/05/04 07:30:54;;;;;;;5.47;3.53;;;;;;;;;;5033554;28;20179;-61
2022/05/04 07:33:22;;;;;;;5.65;3.65;;;;;;;;;;5034848;28;20045;-60
2022/05/04 07:35:50;;;;;;;7.38;3.55;;;;;;;;;;5034884;28;20052;-61
2022/05/04 07:38:16;;;;;;;6.60;3.80;;;;;;;;;;5034931;28;20132;-60
2022/05/04 07:43:28;;;;;;;7.40;3.83;;;;;;;;;;5033558;28;20127;-61
2022/05/04 07:45:56;;;;;;;6.20;3.80;;;;;;;;;;5028598;28;20053;-61
2022/05/04 07:48:24;;;;;;;7.38;4.53;;;;;;;;;;5014284;28;20458;-61
2022/05/04 07:50:51;;;;;;;7.57;5.10;;;;;;;;;;5013935;28;20054;-61
2022/05/04 07:53:18;;;;;;;4.70;3.17;;;;;;;;;;5013674;28;20054;-61
2022/05/04 07:55:45;;;;;;;6.38;4.18;;;;;;;;;;5031827;28;20442;-61
2022/05/04 07:58:12;;;;;;;8.18;4.65;;;;;;;;;;5032922;28;20620;-60
2022/05/04 08:06:11;;;;;;;4.97;3.42;;;;;;;;;;5032490;28;20063;-61
2022/05/04 08:08:38;;;;;;;7.05;3.47;;;;;;;;;;5033242;28;20057;-61
2022/05/04 08:11:05;;;;;;;7.55;3.95;;;;;;;;;;5033070;28;20061;-61
2022/05/04 08:13:32;;;;;;;6.47;3.65;;;;;;;;;;5032431;28;20549;-61
2022/05/04 08:15:59;;;;;;;6.45;3.88;;;;;;;;;;5032783;28;20153;-61
2022/05/04 08:18:28;;;;;;;5.30;3.58;;;;;;;;;;5032672;28;20045;-60
2022/05/04 08:20:54;;;;;;;4.80;3.20;;;;;;;;;;5032579;28;20050;-61
2022/05/04 08:23:21;;;;;;;4.90;3.20;;;;;;;;;;5032334;28;20052;-61
2022/05/04 08:25:50;;;;;;;5.53;2.85;;;;;;;;;;5032251;28;20049;-61
2022/05/04 08:28:18;;;;;;;5.25;3.10;;;;;;;;;;5032871;28;20053;-61
2022/05/04 08:30:45;;;;;;;5.43;2.80;;;;;;;;;;5032221;28;20053;-61
2022/05/04 08:33:12;;;;;;;5.38;3.25;;;;;;;;;;5033045;28;20529;-61
2022/05/04 08:35:40;;;;;;;5.93;3.00;;;;;;;;;;5032837;28;20054;-60
2022/05/04 08:38:07;;;;;;;4.38;2.97;;;;;;;;;;5032376;28;20049;-61
2022/05/04 08:40:34;;;;;;;9.07;6.00;;;;;;;;;;5033298;28;20052;-61
2022/05/04 08:43:05;;;;;;;4.93;2.72;;;;;;;;;;5032523;28;20059;-61
2022/05/04 08:45:35;;;;;;;7.20;3.47;;;;;;;;;;5032069;28;20080;-61
2022/05/04 08:48:03;;;;;;;4.72;2.63;;;;;;;;;;5032440;28;20052;-61
2022/05/04 08:50:30;;;;;;;5.38;2.20;;;;;;;;;;5032178;28;20068;-61
2022/05/04 08:53:00;;;;;;;4.82;2.50;;;;;;;;;;5032669;28;20059;-61
2022/05/04 08:55:27;;;;;;;5.65;2.95;;;;;;;;;;5032165;28;20053;-62
2022/05/04 08:57:54;;;;;;;5.53;2.47;;;;;;;;;;5032114;28;20053;-62
2022/05/04 09:00:21;;;;;;;4.47;2.60;;;;;;;;;;5031681;28;20084;-61
2022/05/04 09:02:49;;;;;;;7.15;3.65;;;;;;;;;;5031816;28;20084;-61
2022/05/04 09:05:20;;;;;;;8.73;4.60;;;;;;;;;;5031160;28;20057;-61
2022/05/04 09:07:50;;;;;;;8.18;3.88;;;;;;;;;;5031455;28;20055;-61
2022/05/04 09:10:20;;;;;;;7.03;3.28;;;;;;;;;;5031235;28;20469;-62
2022/05/04 09:12:48;;;;;;;5.07;2.90;;;;;;;;;;5031404;28;20406;-61
2022/05/04 09:15:20;;;;;;;5.18;2.95;;;;;;;;;;5031162;28;20077;-61
2022/05/04 09:17:47;;;;;;;5.50;3.10;;;;;;;;;;5031264;28;20049;-61
2022/05/04 09:22:59;;;;;;;7.97;3.90;;;;;;;;;;5032245;28;20492;-61
2022/05/04 09:25:27;;;;;;;6.35;3.53;;;;;;;;;;5031347;28;20386;-61
2022/05/04 09:27:56;;;;;;;5.57;2.80;;;;;;;;;;5031718;28;20049;-61
2022/05/04 09:30:26;;;;;;;5.68;2.97;;;;;;;;;;5032484;28;20502;-61
2022/05/04 09:32:53;;;;;;;;;;;;;;;;;;5032125;28;20362;-61
2022/05/04 09:35:20;;;;;;;5.95;3.10;;;;;;;;;;5030802;28;19928;-61
2022/05/04 09:46:07;;;;;;;6.75;3.13;;;;;;;;;;5031378;28;20118;-61
2022/05/04 09:48:35;;;;;;;6.25;3.00;;;;;;;;;;5031996;28;20402;-61
2022/05/04 09:51:04;;;;;;;6.43;2.65;;;;;;;;;;5031304;28;20156;-61
2022/05/04 09:53:31;;;;;;;4.53;2.80;;;;;;;;;;5031896;28;20053;-61
2022/05/04 09:56:01;;;;;;;5.28;3.03;;;;;;;;;;5031254;28;20137;-61
2022/05/04 09:58:29;;;;;;;4.53;3.08;;;;;;;;;;5030970;28;20093;-61
2022/05/04 10:00:57;;;;;;;5.78;3.08;;;;;;;;;;5021686;28;20104;-61
2022/05/04 10:03:25;;;;;;;10.48;4.22;;;;;;;;;;5026492;28;20119;-65
2022/05/04 10:05:54;;;;;;;5.28;3.35;;;;;;;;;;5019987;28;20134;-61
2022/05/04 10:08:21;;;;;;;5.38;2.85;;;;;;;;;;5025114;28;20072;-60
2022/05/04 10:10:49;;;;;;;6.20;3.33;;;;;;;;;;5024116;28;20112;-61
2022/05/04 10:13:19;;;;;;;6.70;2.97;;;;;;;;;;5024289;28;20054;-61
2022/05/04 10:15:47;;;;;;;5.43;3.38;;;;;;;;;;5031500;28;20072;-61
2022/05/04 10:18:20;;;;;;;6.43;3.40;;;;;;;;;;5030536;28;20053;-63
2022/05/04 10:20:50;;;;;;;7.95;3.92;;;;;;;;;;5030841;28;20049;-60
2022/05/04 10:23:21;;;;;;;5.22;3.38;;;;;;;;;;5027601;28;20053;-60
2022/05/04 10:25:50;;;;;;;5.20;3.08;;;;;;;;;;5018417;28;20046;-60
2022/05/04 10:28:19;;;;;;;6.88;3.83;;;;;;;;;;5021187;28;20054;-61
2022/05/04 10:30:51;;;;;;;6.65;3.58;;;;;;;;;;5030375;28;20049;-61
2022/05/04 10:33:19;;;;;;;6.70;3.10;;;;;;;;;;5031119;28;20054;-62
2022/05/04 10:35:48;;;;;;;6.07;4.28;;;;;;;;;;5030868;28;20052;-61
2022/05/04 10:38:21;;;;;;;5.47;4.00;;;;;;;;;;5031295;28;20140;-60
2022/05/04 10:40:51;;;;;;;6.18;3.67;;;;;;;;;;5024388;28;20049;-65
2022/05/04 10:43:34;;;;;;;5.30;3.67;;;;;;;;;;5012573;28;20049;-61
2022/05/04 10:46:06;;;;;;;5.40;3.30;;;;;;;;;;5024129;28;20062;-62
2022/05/04 10:48:33;;;;;;;6.90;3.28;;;;;;;;;;5019155;28;20048;-62
2022/05/04 10:51:11;;;;;;;6.35;3.70;;;;;;;;;;5027641;28;20402;-69
2022/05/04 10:53:41;;;;;;;5.35;2.90;;;;;;;;;;5018354;28;20056;-62
2022/05/04 10:56:09;;;;;;;5.88;3.47;;;;;;;;;;5032641;28;20057;-62
2022/05/04 10:58:45;;;;;;;5.72;3.50;;;;;;;;;;5028162;28;20045;-62
2022/05/04 11:01:14;;;;;;;5.43;3.08;;;;;;;;;;5026716;28;20061;-62
2022/05/04 11:04:18;;;;;;;9.20;6.70;;;;;;;;;;5021058;28;20058;-62
2022/05/04 11:06:50;;;;;;;6.57;3.45;;;;;;;;;;5017437;28;20065;-62
2022/05/04 11:09:18;;;;;;;6.88;4.85;;;;;;;;;;5061292;22;20521;-77
2022/05/04 11:11:47;;;;;;;9.38;5.38;;;;;;;;;;5045690;28;20041;-77
2022/05/04 11:14:17;;;;;;;7.50;4.97;;;;;;;;;;5038995;28;20538;-77
2022/05/04 11:16:45;;;;;;;8.38;5.53;;;;;;;;;;5043239;28;20045;-79
2022/05/04 11:19:14;;;;;;;8.85;5.88;;;;;;;;;;5038033;28;20065;-77
2022/05/04 11:21:41;;;;;;;7.93;5.15;;;;;;;;;;5051291;28;20507;-79
2022/05/04 11:24:10;;;;;;;7.97;5.32;;;;;;;;;;5066730;28;20053;-77
2022/05/04 11:26:38;;;;;;;10.43;6.38;;;;;;;;;;5075709;28;20043;-78
2022/05/04 11:29:10;;;;;;;8.52;5.25;;;;;;;;;;5077489;28;20088;-77
2022/05/04 11:31:38;;;;;;;8.75;5.75;;;;;;;;;;5077854;28;20037;-77
2022/05/04 11:34:05;;;;;;;9.38;5.68;;;;;;;;;;5058575;28;20053;-78
2022/05/04 11:36:32;;;;;;;7.97;5.60;;;;;;;;;;5054798;28;20053;-78
2022/05/04 11:38:59;;;;;;;8.90;4.78;;;;;;;;;;5053151;28;20048;-78
2022/05/04 11:41:26;;;;;;;8.85;5.85;;;;;;;;;;5052635;28;20075;-78
2022/05/04 11:43:58;;;;;;;11.60;6.15;;;;;;;;;;5052593;28;20041;-78
2022/05/04 11:46:24;;;;;;;7.47;5.38;;;;;;;;;;5052410;28;20045;-79
2022/05/04 11:48:58;;;;;;;8.73;5.40;;;;;;;;;;5052418;28;20099;-78
2022/05/04 11:51:25;;;;;;;9.40;5.22;;;;;;;;;;5052816;28;20047;-78
2022/05/04 11:53:52;;;;;;;8.15;4.63;;;;;;;;;;5052432;28;20049;-79
2022/05/04 11:56:19;;;;;;;5.95;4.10;;;;;;;;;;5053128;28;20048;-78
2022/05/04 11:58:45;;;;;;;7.20;4.30;;;;;;;;;;5053243;28;20045;-80
2022/05/04 12:01:13;;;;;;;5.53;3.67;;;;;;;;;;5044342;28;20041;-78
2022/05/04 12:03:40;;;;;;;7.38;5.00;;;;;;;;;;5045789;28;20053;-79
2022/05/04 12:06:10;;;;;;;15.13;10.65;;;;;;;;;;5040590;28;20045;-81
2022/05/04 12:08:38;;;;;;;17.98;11.45;;;;;;;;;;5046250;28;20044;-78
2022/05/04 12:11:06;;;;;;;8.25;5.28;;;;;;;;;;5054378;28;20044;-77
2022/05/04 12:13:36;;;;;;;7.80;4.70;;;;;;;;;;5061382;28;20079;-77
2022/05/04 12:16:06;;;;;;;10.68;8.10;;;;;;;;;;5048349;28;20041;-78
2022/05/04 12:18:34;;;;;;;12.35;9.20;;;;;;;;;;5035004;28;20053;-78
2022/05/04 12:21:06;;;;;;;19.48;14.60;;;;;;;;;;5034773;28;20053;-78
2022/05/04 12:23:36;;;;;;;13.15;9.48;;;;;;;;;;5045744;28;20488;-78
2022/05/04 12:26:03;;;;;;;10.50;7.23;;;;;;;;;;5043514;28;20099;-78
2022/05/04 12:28:31;;;;;;;8.77;5.78;;;;;;;;;;5038594;28;20037;-77
2022/05/04 12:33:43;;;;;;;7.10;4.15;;;;;;;;;;5043105;28;20791;-77
2022/05/04 12:36:12;;;;;;;6.80;3.67;;;;;;;;;;5045325;28;20076;-78
2022/05/04 12:38:46;;;;;;;6.35;3.55;;;;;;;;;;5044112;28;20038;-80
2022/05/04 12:41:14;;;;;;;7.75;4.30;;;;;;;;;;5040685;28;20160;-79
2022/05/04 12:43:41;;;;;;;12.23;9.98;;;;;;;;;;5043116;28;20041;-78
2022/05/04 12:46:09;;;;;;;10.50;7.60;;;;;;;;;;5036369;28;20095;-78
2022/05/04 12:48:39;;;;;;;10.52;6.60;;;;;;;;;;5046424;28;20040;-78
2022/05/04 12:51:07;;;;;;;7.30;4.80;;;;;;;;;;5046022;28;20049;-79
2022/05/04 12:53:35;;;;;;;6.90;4.50;;;;;;;;;;5049586;28;20033;-76
2022/05/04 12:58:47;;;;;;;5.15;3.30;;;;;;;;;;5050307;28;20060;-80
2022/05/04 13:01:14;;;;;;;5.55;3.20;;;;;;;;;;5036568;28;20053;-78
2022/05/04 13:03:41;;;;;;;4.68;3.00;;;;;;;;;;5051561;28;20467;-78
2022/05/04 13:06:08;;;;;;;6.05;3.38;;;;;;;;;;5051704;28;20049;-79
2022/05/04 13:08:35;;;;;;;6.78;3.65;;;;;;;;;;5051360;28;20053;-76
2022/05/04 13:11:05;;;;;;;7.32;4.28;;;;;;;;;;5038023;28;20049;-79
2022/05/04 13:13:31;;;;;;;7.40;4.20;;;;;;;;;;5039655;28;20045;-80
2022/05/04 13:15:58;;;;;;;7.05;4.60;;;;;;;;;;5042110;28;20111;-79
2022/05/04 13:18:25;;;;;;;6.75;4.28;;;;;;;;;;5038256;28;20068;-79
2022/05/04 13:20:52;;;;;;;6.50;4.97;;;;;;;;;;5044026;28;20099;-80
2022/05/04 13:23:19;;;;;;;7.18;4.32;;;;;;;;;;5043881;28;20109;-79
2022/05/04 13:25:46;;;;;;;7.82;4.60;;;;;;;;;;5045358;28;20041;-79
2022/05/04 13:28:14;;;;;;;6.82;4.60;;;;;;;;;;5040229;28;20065;-79
2022/05/04 13:30:42;;;;;;;6.43;4.13;;;;;;;;;;5047093;28;20106;-81
2022/05/04 13:33:10;;;;;;;6.30;4.10;;;;;;;;;;5036972;28;20459;-80
2022/05/04 13:35:37;;;;;;;5.07;3.65;;;;;;;;;;5035257;28;20057;-78
2022/05/04 13:38:04;;;;;;;5.35;3.60;;;;;;;;;;5032014;28;20144;-79
2022/05/04 13:40:31;;;;;;;7.25;4.28;;;;;;;;;;5032240;28;20089;-79
2022/05/04 13:42:58;;;;;;;6.75;4.38;;;;;;;;;;5032722;28;20053;-79
2022/05/04 13:45:26;;;;;;;6.47;4.43;;;;;;;;;;5048610;28;20110;-79
2022/05/04 13:47:54;;;;;;;5.53;3.47;;;;;;;;;;5034140;28;20049;-79
2022/05/04 13:53:17;;;;;;;5.88;4.20;;;;;;;;;;5032358;28;20108;-79
2022/05/04 13:55:45;;;;;;;6.90;4.50;;;;;;;;;;5041566;28;20057;-78
2022/05/04 13:58:12;;;;;;;6.10;3.92;;;;;;;;;;5040459;28;20055;-78
2022/05/04 14:00:41;;;;;;;7.47;3.90;;;;;;;;;;5038564;28;20072;-80
2022/05/04 14:03:08;;;;;;;5.43;3.10;;;;;;;;;;5032439;28;20105;-80
2022/05/04 14:05:35;;;;;;;6.60;3.53;;;;;;;;;;5030983;28;20052;-80
2022/05/04 14:08:02;;;;;;;6.15;3.50;;;;;;;;;;5031231;28;20107;-78
2022/05/04 14:10:29;;;;;;;5.55;3.88;;;;;;;;;;5036362;28;20454;-79
2022/05/04 14:12:57;;;;;;;5.53;3.50;;;;;;;;;;5039492;28;20124;-80
2022/05/04 14:15:24;;;;;;;5.63;3.65;;;;;;;;;;5038834;28;20080;-79
2022/05/04 14:17:52;;;;;;;5.63;3.50;;;;;;;;;;5044653;28;20049;-80
2022/05/04 14:20:20;;;;;;;7.35;4.70;;;;;;;;;;5046033;28;20103;-80
2022/05/04 14:22:48;;;;;;;4.65;3.47;;;;;;;;;;5056403;28;20098;-80
2022/05/04 14:25:15;;;;;;;5.63;3.50;;;;;;;;;;5057712;28;20116;-79
2022/05/04 14:27:43;;;;;;;20.58;11.68;;;;;;;;;;5057310;28;20051;-78
2022/05/04 14:30:10;;;;;;;7.03;4.15;;;;;;;;;;5057596;28;20490;-79
2022/05/04 14:32:37;;;;;;;9.60;6.82;;;;;;;;;;5057934;28;20122;-79
2022/05/04 14:35:06;;;;;;;14.30;9.43;;;;;;;;;;5055304;28;20470;-77
2022/05/04 14:37:33;;;;;;;5.87;3.43;;;;;;;;;;5054145;28;20045;-79
2022/05/04 14:40:00;;;;;;;5.25;3.33;;;;;;;;;;5055490;28;20049;-78
2022/05/04 14:42:27;;;;;;;4.47;2.70;;;;;;;;;;5050257;28;20042;-80
2022/05/04 14:44:54;;;;;;;5.57;3.25;;;;;;;;;;5047488;28;20058;-78
2022/05/04 14:47:20;;;;;;;4.60;3.15;;;;;;;;;;5043405;28;20046;-79
2022/05/04 14:49:47;;;;;;;4.72;3.13;;;;;;;;;;5036842;28;20783;-79
2022/05/04 14:52:16;;;;;;;11.57;4.43;;;;;;;;;;5039549;28;20122;-78
2022/05/04 14:54:43;;;;;;;7.10;3.90;;;;;;;;;;5044679;28;20075;-78
2022/05/04 14:57:09;;;;;;;7.45;4.43;;;;;;;;;;5055101;28;20048;-77
2022/05/04 14:59:36;;;;;;;7.40;4.28;;;;;;;;;;5051437;28;20103;-78
2022/05/04 15:02:04;;;;;;;5.47;4.00;;;;;;;;;;5050850;28;20663;-79
2022/05/04 15:07:17;;;;;;;7.28;4.85;;;;;;;;;;5041887;28;20111;-79
2022/05/04 15:09:45;;;;;;;6.50;4.30;;;;;;;;;;5035059;28;20057;-78
2022/05/04 15:12:12;;;;;;;6.57;4.60;;;;;;;;;;5033631;28;20751;-78
2022/05/04 15:14:39;;;;;;;6.50;5.18;;;;;;;;;;5038957;28;20079;-78
2022/05/04 15:17:06;;;;;;;8.18;5.32;;;;;;;;;;5049010;28;20045;-78
2022/05/04 15:19:34;;;;;;;7.00;5.30;;;;;;;;;;5048357;28;20543;-79
2022/05/04 15:22:01;;;;;;;6.85;4.93;;;;;;;;;;5043219;28;20123;-77
2022/05/04 15:24:29;;;;;;;8.05;4.88;;;;;;;;;;5046630;28;20049;-78
2022/05/04 15:26:56;;;;;;;6.68;5.13;;;;;;;;;;5042453;28;20067;-79
2022/05/04 15:29:23;;;;;;;7.55;4.55;;;;;;;;;;5041603;28;20094;-77